createdAt,value
2018-09-11T00:01:37.465Z,10.40
2018-09-11T00:04:09.073Z,9.53
2018-09-11T00:06:40.618Z,9.90
2018-09-11T00:09:13.010Z,9.17
2018-09-11T00:11:44.499Z,9.37
2018-09-11T00:14:15.948Z,9.20
2018-09-11T00:16:47.414Z,10.20
2018-09-11T00:19:18.877Z,11.00
2018-09-11T00:21:50.338Z,8.87
2018-09-11T00:24:21.797Z,10.30
2018-09-11T00:26:53.248Z,8.67
2018-09-11T00:29:24.813Z,7.83
2018-09-11T00:31:56.969Z,8.63
2018-09-11T00:34:28.422Z,7.67
2018-09-11T00:36:59.927Z,9.70
2018-09-11T00:39:31.440Z,7.90
2018-09-11T00:42:02.959Z,7.97
2018-09-11T00:44:34.421Z,7.23
2018-09-11T00:47:06.759Z,8.50
2018-09-11T00:49:38.405Z,7.30
2018-09-11T00:52:09.876Z,8.60
2018-09-11T00:54:41.384Z,9.10
2018-09-11T00:57:12.837Z,8.63
2018-09-11T00:59:44.311Z,8.20
2018-09-11T01:02:15.766Z,7.77
2018-09-11T01:04:47.213Z,9.13
2018-09-11T01:07:18.666Z,8.80
2018-09-11T01:09:50.145Z,9.67
2018-09-11T01:12:21.602Z,7.83
2018-09-11T01:14:53.056Z,8.80
2018-09-11T01:17:24.514Z,9.87
2018-09-11T01:19:56.092Z,8.70
2018-09-11T01:22:27.545Z,8.23
2018-09-11T01:24:58.984Z,8.20
2018-09-11T01:27:30.430Z,7.63
2018-09-11T01:30:01.909Z,10.30
2018-09-11T01:32:33.418Z,8.33
2018-09-11T01:35:04.894Z,8.23
2018-09-11T01:37:36.356Z,7.77
2018-09-11T01:40:07.805Z,7.60
2018-09-11T01:42:39.310Z,8.30
2018-09-11T01:45:10.756Z,10.47
2018-09-11T01:47:42.224Z,10.07
2018-09-11T01:50:13.768Z,8.50
2018-09-11T01:52:45.219Z,9.07
2018-09-11T01:55:16.724Z,9.20
2018-09-11T01:57:48.180Z,8.43
2018-09-11T02:00:20.647Z,9.23
2018-09-11T02:02:52.158Z,9.00
2018-09-11T02:05:23.604Z,8.90
2018-09-11T02:07:55.083Z,19.90
2018-09-11T02:10:26.540Z,8.30
2018-09-11T02:12:57.996Z,9.60
2018-09-11T02:15:29.479Z,10.20
2018-09-11T02:18:00.957Z,7.70
2018-09-11T02:20:32.420Z,8.70
2018-09-11T02:23:03.909Z,9.10
2018-09-11T02:25:35.369Z,8.90
2018-09-11T02:28:06.878Z,8.90
2018-09-11T02:30:38.333Z,9.80
2018-09-11T02:33:10.796Z,10.30
2018-09-11T02:35:42.290Z,9.13
2018-09-11T02:38:13.790Z,9.70
2018-09-11T02:40:45.376Z,9.00
2018-09-11T02:43:16.847Z,10.50
2018-09-11T02:45:48.307Z,9.70
2018-09-11T02:48:19.775Z,9.60
2018-09-11T02:50:51.255Z,8.80
2018-09-11T02:53:22.713Z,9.17
2018-09-11T02:55:54.157Z,9.43
2018-09-11T02:58:25.642Z,9.37
2018-09-11T03:00:57.106Z,11.00
2018-09-11T03:03:28.606Z,10.77
2018-09-11T03:06:00.092Z,8.70
2018-09-11T03:08:31.658Z,7.33
2018-09-11T03:11:03.313Z,8.70
2018-09-11T03:13:34.765Z,9.47
2018-09-11T03:16:06.305Z,8.60
2018-09-11T03:18:37.914Z,8.23
2018-09-11T03:21:09.353Z,8.40
2018-09-11T03:23:40.838Z,8.53
2018-09-11T03:26:12.419Z,8.57
2018-09-11T03:28:43.887Z,8.70
2018-09-11T03:31:15.365Z,9.63
2018-09-11T03:33:46.849Z,9.93
2018-09-11T03:36:18.401Z,8.87
2018-09-11T03:38:49.856Z,9.73
2018-09-11T03:41:21.334Z,10.10
2018-09-11T03:43:52.787Z,9.47
2018-09-11T03:46:24.236Z,9.40
2018-09-11T03:48:55.780Z,12.80
2018-09-11T03:51:27.234Z,10.40
2018-09-11T03:53:58.691Z,8.67
2018-09-11T03:56:30.155Z,9.43
2018-09-11T03:59:01.605Z,8.63
2018-09-11T04:01:33.061Z,8.67
2018-09-11T04:04:04.570Z,8.03
2018-09-11T04:06:36.026Z,8.17
2018-09-11T04:09:08.017Z,8.03
2018-09-11T04:11:39.675Z,8.07
2018-09-11T04:14:11.325Z,7.47
2018-09-11T04:16:42.818Z,9.20
2018-09-11T04:19:14.305Z,6.50
2018-09-11T04:21:45.779Z,8.07
2018-09-11T04:24:17.249Z,8.40
2018-09-11T04:26:48.729Z,9.23
2018-09-11T04:29:20.191Z,9.50
2018-09-11T04:31:54.351Z,8.00
2018-09-11T04:34:25.873Z,9.10
2018-09-11T04:36:57.405Z,9.37
2018-09-11T04:39:28.861Z,9.00
2018-09-11T04:42:00.302Z,8.30
2018-09-11T04:44:31.775Z,7.17
2018-09-11T04:47:03.217Z,7.20
2018-09-11T04:49:34.678Z,7.93
2018-09-11T04:52:06.135Z,8.57
2018-09-11T04:54:37.603Z,7.43
2018-09-11T04:57:09.125Z,11.57
2018-09-11T04:59:40.687Z,7.70
2018-09-11T05:02:12.142Z,11.80
2018-09-11T05:04:43.709Z,9.10
2018-09-11T05:07:15.164Z,9.07
2018-09-11T05:09:46.624Z,7.40
2018-09-11T05:12:18.074Z,7.23
2018-09-11T05:14:49.563Z,8.20
2018-09-11T05:17:21.026Z,9.93
2018-09-11T05:19:52.506Z,10.57
2018-09-11T05:22:23.961Z,11.17
2018-09-11T05:24:55.446Z,7.10
2018-09-11T05:27:26.904Z,10.90
2018-09-11T05:29:58.361Z,8.83
2018-09-11T05:32:29.828Z,10.13
2018-09-11T05:35:01.318Z,9.40
2018-09-11T05:37:32.777Z,8.70
2018-09-11T05:40:04.269Z,9.07
2018-09-11T05:42:35.714Z,8.67
2018-09-11T05:45:07.231Z,11.10
2018-09-11T05:47:38.780Z,14.37
2018-09-11T05:50:10.237Z,9.43
2018-09-11T05:52:41.698Z,10.80
2018-09-11T05:55:13.137Z,13.37
2018-09-11T05:57:44.616Z,10.90
2018-09-11T06:00:16.077Z,10.43
2018-09-11T06:02:47.586Z,10.10
2018-09-11T06:05:19.053Z,10.37
2018-09-11T06:07:50.525Z,11.60
2018-09-11T06:10:21.977Z,13.57
2018-09-11T06:12:53.512Z,10.80
2018-09-11T06:15:24.947Z,10.33
2018-09-11T06:17:56.402Z,11.60
2018-09-11T06:20:27.855Z,10.33
2018-09-11T06:22:59.418Z,10.20
2018-09-11T06:25:31.060Z,10.13
2018-09-11T06:28:02.523Z,11.73
2018-09-11T06:30:34.020Z,10.70
2018-09-11T06:33:05.496Z,10.63
2018-09-11T06:35:37.099Z,12.90
2018-09-11T06:38:08.413Z,10.17
2018-09-11T06:40:39.852Z,10.80
2018-09-11T06:43:11.564Z,10.80
2018-09-11T06:45:43.018Z,10.60
2018-09-11T06:48:14.466Z,13.60
2018-09-11T06:50:45.946Z,10.13
2018-09-11T06:53:17.414Z,11.43
2018-09-11T06:55:48.872Z,10.60
2018-09-11T06:58:20.353Z,10.43
2018-09-11T07:00:52.157Z,10.50
2018-09-11T07:03:23.620Z,8.97
2018-09-11T07:05:55.174Z,9.77
2018-09-11T07:08:26.651Z,14.73
2018-09-11T07:10:58.065Z,9.30
2018-09-11T07:13:29.509Z,10.67
2018-09-11T07:16:00.973Z,12.37
2018-09-11T07:18:32.449Z,10.13
2018-09-11T07:21:03.953Z,11.57
2018-09-11T07:23:35.424Z,12.70
2018-09-11T07:26:06.951Z,9.20
2018-09-11T07:28:38.377Z,9.47
2018-09-11T07:31:09.849Z,8.37
2018-09-11T07:33:41.580Z,8.40
2018-09-11T07:36:13.486Z,10.03
2018-09-11T07:38:44.938Z,7.90
2018-09-11T07:41:16.384Z,7.23
2018-09-11T07:43:47.857Z,7.33
2018-09-11T07:46:19.401Z,8.80
2018-09-11T07:48:50.854Z,7.37
2018-09-11T07:51:22.425Z,8.50
2018-09-11T07:53:53.949Z,9.30
2018-09-11T07:56:25.534Z,6.70
2018-09-11T07:58:57.082Z,8.27
2018-09-11T08:01:28.632Z,7.67
2018-09-11T08:04:00.224Z,6.87
2018-09-11T08:06:31.674Z,6.23
2018-09-11T08:09:04.182Z,6.67
2018-09-11T08:11:35.697Z,7.00
2018-09-11T08:14:07.545Z,6.93
2018-09-11T08:16:39.077Z,5.60
2018-09-11T08:19:10.546Z,6.60
2018-09-11T08:21:41.993Z,5.70
2018-09-11T08:24:13.461Z,6.13
2018-09-11T08:26:45.005Z,5.33
2018-09-11T08:29:16.528Z,7.03
2018-09-11T08:31:47.981Z,7.23
2018-09-11T08:34:19.442Z,9.03
2018-09-11T08:36:51.523Z,6.20
2018-09-11T08:39:22.997Z,5.93
2018-09-11T08:41:54.471Z,5.67
2018-09-11T08:44:25.941Z,6.97
2018-09-11T08:46:57.409Z,7.07
2018-09-11T08:49:28.887Z,6.83
2018-09-11T08:52:00.377Z,5.77
2018-09-11T08:54:31.855Z,5.97
2018-09-11T08:57:03.306Z,5.70
2018-09-11T08:59:34.796Z,8.57
2018-09-11T09:02:06.261Z,9.07
2018-09-11T09:07:24.768Z,7.00
2018-09-11T09:09:56.286Z,9.43
2018-09-11T09:12:27.723Z,9.37
2018-09-11T09:15:00.375Z,7.53
2018-09-11T09:17:31.837Z,4.83
2018-09-11T09:20:03.336Z,7.63
2018-09-11T09:22:34.833Z,11.50
2018-09-11T09:25:06.324Z,4.67
2018-09-11T09:27:37.891Z,4.43
2018-09-11T09:30:09.365Z,5.40
2018-09-11T09:32:40.835Z,8.57
2018-09-11T09:35:12.305Z,17.03
2018-09-11T09:37:43.793Z,8.10
2018-09-11T09:40:15.297Z,9.13
2018-09-11T09:42:46.829Z,7.40
2018-09-11T09:45:18.297Z,8.70
2018-09-11T09:47:49.769Z,7.67
2018-09-11T09:50:21.310Z,6.57
2018-09-11T09:52:52.853Z,11.27
2018-09-11T09:55:24.300Z,8.43
2018-09-11T09:57:55.835Z,8.43
2018-09-11T10:00:33.253Z,8.10
2018-09-11T10:03:05.013Z,6.60
2018-09-11T10:05:36.562Z,6.43
2018-09-11T10:08:08.087Z,6.27
2018-09-11T10:10:41.181Z,10.73
2018-09-11T10:13:12.656Z,9.03
2018-09-11T10:15:44.196Z,6.43
2018-09-11T10:18:15.665Z,5.43
2018-09-11T10:20:47.108Z,11.73
2018-09-11T10:23:18.565Z,6.90
2018-09-11T10:25:50.085Z,6.67
2018-09-11T10:28:21.663Z,6.13
2018-09-11T10:30:53.170Z,5.30
2018-09-11T10:33:24.666Z,5.87
2018-09-11T10:38:45.136Z,5.53
2018-09-11T10:41:16.109Z,4.57
2018-09-11T10:43:47.089Z,3.73
2018-09-11T10:46:18.069Z,7.80
2018-09-11T10:48:49.090Z,5.20
2018-09-11T10:51:20.024Z,4.10
2018-09-11T10:53:50.984Z,6.50
2018-09-11T10:56:21.970Z,12.70
2018-09-11T10:58:53.005Z,5.70
2018-09-11T11:01:23.990Z,6.70
2018-09-11T11:04:03.272Z,5.73
2018-09-11T11:06:34.317Z,5.67
2018-09-11T11:09:05.379Z,6.80
2018-09-11T11:11:36.430Z,7.20
2018-09-11T11:14:07.885Z,9.40
2018-09-11T11:16:38.840Z,3.13
2018-09-11T11:19:09.818Z,5.87
2018-09-11T11:21:40.785Z,5.73
2018-09-11T11:24:12.136Z,4.07
2018-09-11T11:26:43.101Z,6.67
2018-09-11T11:29:14.064Z,4.97
2018-09-11T11:31:45.026Z,5.30
2018-09-11T11:34:16.202Z,5.40
2018-09-11T11:36:47.285Z,3.83
2018-09-11T11:39:18.128Z,6.30
2018-09-11T11:41:49.129Z,4.77
2018-09-11T11:44:20.080Z,5.50
2018-09-11T11:46:51.048Z,4.03
2018-09-11T11:49:22.013Z,4.93
2018-09-11T11:51:52.981Z,4.13
2018-09-11T11:54:23.937Z,4.43
2018-09-11T11:56:54.899Z,4.77
2018-09-11T11:59:25.856Z,4.20
2018-09-11T12:01:56.895Z,5.20
2018-09-11T12:04:27.813Z,3.77
2018-09-11T12:06:58.766Z,4.20
2018-09-11T12:09:29.729Z,6.10
2018-09-11T12:12:00.700Z,7.63
2018-09-11T12:14:31.660Z,5.43
2018-09-11T12:17:02.708Z,5.20
2018-09-11T12:19:33.610Z,5.27
2018-09-11T12:22:04.572Z,5.77
2018-09-11T12:24:35.537Z,10.30
2018-09-11T12:27:06.504Z,6.67
2018-09-11T12:29:37.558Z,5.20
2018-09-11T12:32:08.521Z,7.13
2018-09-11T12:34:39.491Z,4.90
2018-09-11T12:37:10.474Z,6.43
2018-09-11T12:39:41.476Z,3.97
2018-09-11T12:42:12.454Z,6.37
2018-09-11T12:44:43.496Z,6.53
2018-09-11T12:47:14.772Z,5.23
2018-09-11T12:49:45.424Z,5.57
2018-09-11T12:52:16.432Z,6.20
2018-09-11T12:54:47.417Z,6.10
2018-09-11T12:57:18.393Z,5.77
2018-09-11T12:59:49.353Z,7.50
2018-09-11T13:02:20.420Z,6.87
2018-09-11T13:04:51.417Z,7.73
2018-09-11T13:07:22.383Z,4.23
2018-09-11T13:09:53.396Z,5.17
2018-09-11T13:12:24.356Z,5.63
2018-09-11T13:14:55.609Z,5.93
2018-09-11T13:17:26.564Z,5.10
2018-09-11T13:19:57.661Z,6.43
2018-09-11T13:22:28.700Z,5.93
2018-09-11T13:24:59.656Z,7.30
2018-09-11T13:27:30.692Z,4.97
2018-09-11T13:30:01.689Z,5.33
2018-09-11T13:32:32.685Z,4.53
2018-09-11T13:35:03.652Z,3.27
2018-09-11T13:37:34.658Z,3.20
2018-09-11T13:40:09.614Z,2.40
2018-09-11T13:42:40.576Z,3.30
2018-09-11T13:45:11.558Z,4.70
2018-09-11T13:47:42.637Z,4.50
2018-09-11T13:50:13.588Z,6.60
2018-09-11T13:52:44.593Z,2.80
2018-09-11T13:55:15.556Z,2.50
2018-09-11T13:57:46.569Z,3.60
2018-09-11T14:00:17.605Z,3.20
2018-09-11T14:02:48.561Z,3.00
2018-09-11T14:05:19.528Z,4.90
2018-09-11T14:07:50.521Z,3.30
2018-09-11T14:10:21.576Z,3.83
2018-09-11T14:12:52.613Z,3.70
2018-09-11T14:15:23.578Z,3.30
2018-09-11T14:17:54.593Z,2.40
2018-09-11T14:20:25.561Z,6.83
2018-09-11T14:22:56.581Z,3.20
2018-09-11T14:25:27.561Z,2.60
2018-09-11T14:27:58.538Z,3.47
2018-09-11T14:30:29.547Z,6.53
2018-09-11T14:33:00.506Z,4.80
2018-09-11T14:35:31.476Z,2.60
2018-09-11T14:38:02.441Z,2.90
2018-09-11T14:40:33.393Z,5.50
2018-09-11T14:43:04.364Z,5.47
2018-09-11T14:45:35.360Z,8.57
2018-09-11T14:48:06.328Z,7.57
2018-09-11T14:50:37.402Z,9.73
2018-09-11T14:53:08.313Z,15.37
2018-09-11T14:55:39.273Z,10.23
2018-09-11T14:58:10.242Z,7.20
2018-09-11T15:00:41.281Z,5.67
2018-09-11T15:03:12.318Z,4.70
2018-09-11T15:05:43.344Z,7.13
2018-09-11T15:08:14.381Z,9.43
2018-09-11T15:10:45.345Z,6.33
2018-09-11T15:13:16.307Z,8.17
2018-09-11T15:15:47.277Z,5.17
2018-09-11T15:18:18.250Z,4.93
2018-09-11T15:20:49.233Z,7.27
2018-09-11T15:23:20.201Z,6.63
2018-09-11T15:25:51.176Z,4.03
2018-09-11T15:28:22.146Z,6.57
2018-09-11T15:30:53.144Z,3.37
2018-09-11T15:33:24.112Z,4.13
2018-09-11T15:35:55.227Z,4.00
2018-09-11T15:38:26.252Z,3.13
2018-09-11T15:40:57.411Z,4.27
2018-09-11T15:43:28.445Z,6.00
2018-09-11T15:45:59.434Z,6.77
2018-09-11T15:48:30.433Z,3.30
2018-09-11T15:51:01.398Z,3.00
2018-09-11T15:53:32.366Z,6.20
2018-09-11T15:56:03.346Z,5.43
2018-09-11T15:58:34.388Z,1.83
2018-09-11T16:01:05.484Z,3.17
2018-09-11T16:03:36.504Z,1.97
2018-09-11T16:06:07.600Z,1.93
2018-09-11T16:08:38.680Z,4.00
2018-09-11T16:11:09.648Z,1.30
2018-09-11T16:13:40.609Z,3.03
2018-09-11T16:16:11.568Z,2.03
2018-09-11T16:18:42.612Z,3.67
2018-09-11T16:21:13.578Z,3.03
2018-09-11T16:23:44.599Z,2.60
2018-09-11T16:26:15.564Z,5.00
2018-09-11T16:28:46.598Z,2.00
2018-09-11T16:31:17.644Z,2.03
2018-09-11T16:33:48.631Z,2.67
2018-09-11T16:36:19.633Z,1.90
2018-09-11T16:38:50.653Z,2.13
2018-09-11T16:41:21.789Z,1.40
2018-09-11T16:43:52.944Z,3.03
2018-09-11T16:46:24.089Z,3.80
2018-09-11T16:48:55.455Z,1.93
2018-09-11T16:51:26.565Z,2.67
2018-09-11T16:53:57.606Z,1.43
2018-09-11T16:56:29.578Z,3.27
2018-09-11T16:59:00.677Z,2.73
2018-09-11T17:01:31.764Z,3.50
2018-09-11T17:04:03.402Z,2.83
2018-09-11T17:06:34.520Z,1.97
2018-09-11T17:09:05.702Z,2.20
2018-09-11T17:11:36.845Z,2.00
2018-09-11T17:14:07.944Z,0.70
2018-09-11T17:16:39.040Z,1.00
2018-09-11T17:19:10.033Z,2.40
2018-09-11T17:21:41.029Z,3.30
2018-09-11T17:24:11.993Z,2.30
2018-09-11T17:26:43.001Z,2.20
2018-09-11T17:29:14.041Z,0.87
2018-09-11T17:31:45.019Z,1.17
2018-09-11T17:34:16.001Z,1.43
2018-09-11T17:36:46.990Z,1.13
2018-09-11T17:39:17.961Z,1.23
2018-09-11T17:41:48.924Z,1.10
2018-09-11T17:44:19.973Z,2.67
2018-09-11T17:46:50.946Z,1.10
2018-09-11T17:49:21.917Z,1.13
2018-09-11T17:51:52.877Z,1.10
2018-09-11T17:54:23.874Z,1.43
2018-09-11T17:56:54.846Z,1.10
2018-09-11T17:59:25.817Z,0.90
2018-09-11T18:01:56.881Z,1.20
2018-09-11T18:04:27.863Z,2.10
2018-09-11T18:06:58.920Z,1.47
2018-09-11T18:09:29.882Z,6.83
2018-09-11T18:12:00.901Z,7.23
2018-09-11T18:14:31.882Z,11.13
2018-09-11T18:17:02.888Z,14.97
2018-09-11T18:19:34.153Z,16.43
2018-09-11T18:22:05.158Z,27.23
2018-09-11T18:24:36.173Z,19.77
2018-09-11T18:27:07.151Z,17.63
2018-09-11T18:29:38.112Z,9.30
2018-09-11T18:32:09.138Z,11.13
2018-09-11T18:34:40.126Z,9.33
2018-09-11T18:37:11.153Z,8.77
2018-09-11T18:39:42.101Z,8.63
2018-09-11T18:42:13.103Z,9.20
2018-09-11T18:44:44.103Z,7.40
2018-09-11T18:47:15.073Z,5.23
2018-09-11T18:49:46.123Z,5.97
2018-09-11T18:52:17.125Z,4.27
2018-09-11T18:54:48.092Z,6.73
2018-09-11T18:57:19.089Z,4.10
2018-09-11T18:59:50.079Z,4.80
2018-09-11T19:02:21.129Z,7.33
2018-09-11T19:04:52.094Z,3.80
2018-09-11T19:07:23.091Z,5.73
2018-09-11T19:09:54.071Z,3.20
2018-09-11T19:12:25.100Z,2.70
2018-09-11T19:14:56.076Z,3.43
2018-09-11T19:17:27.071Z,3.00
2018-09-11T19:19:58.109Z,4.10
2018-09-11T19:22:29.048Z,4.43
2018-09-11T19:24:59.999Z,9.90
2018-09-11T19:27:30.978Z,6.70
2018-09-11T19:30:02.109Z,3.10
2018-09-11T19:32:33.085Z,2.97
2018-09-11T19:35:04.085Z,3.97
2018-09-11T19:37:35.406Z,2.83
2018-09-11T19:40:06.390Z,3.50
2018-09-11T19:42:37.365Z,3.13
2018-09-11T19:45:08.368Z,4.37
2018-09-11T19:47:39.381Z,3.80
2018-09-11T19:50:10.412Z,2.80
2018-09-11T19:52:41.917Z,3.77
2018-09-11T19:55:12.873Z,4.10
2018-09-11T19:57:43.898Z,3.10
2018-09-11T20:00:14.877Z,2.60
2018-09-11T20:02:45.848Z,4.23
2018-09-11T20:05:16.841Z,3.30
2018-09-11T20:07:47.834Z,2.57
2018-09-11T20:10:18.802Z,3.43
2018-09-11T20:12:49.780Z,2.70
2018-09-11T20:15:20.809Z,3.60
2018-09-11T20:17:51.761Z,4.90
2018-09-11T20:20:22.769Z,2.43
2018-09-11T20:22:53.838Z,1.93
2018-09-11T20:25:24.869Z,4.60
2018-09-11T20:27:55.810Z,3.27
2018-09-11T20:30:26.787Z,2.10
2018-09-11T20:32:57.758Z,2.20
2018-09-11T20:35:28.735Z,4.07
2018-09-11T20:37:59.725Z,2.83
2018-09-11T20:40:30.702Z,2.67
2018-09-11T20:43:01.666Z,3.07
2018-09-11T20:45:32.629Z,3.80
2018-09-11T20:48:03.622Z,2.60
2018-09-11T20:50:34.606Z,2.70
2018-09-11T20:53:05.616Z,3.53
2018-09-11T20:55:36.581Z,2.10
2018-09-11T20:58:07.561Z,1.90
2018-09-11T21:00:38.531Z,1.73
2018-09-11T21:03:09.509Z,5.27
2018-09-11T21:05:40.493Z,3.50
2018-09-11T21:08:11.460Z,5.70
2018-09-11T21:10:42.428Z,2.43
2018-09-11T21:13:13.411Z,6.07
2018-09-11T21:15:44.380Z,2.70
2018-09-11T21:18:15.358Z,2.90
2018-09-11T21:20:46.339Z,2.63
2018-09-11T21:23:17.318Z,1.90
2018-09-11T21:25:48.317Z,2.43
2018-09-11T21:28:19.289Z,1.80
2018-09-11T21:30:50.278Z,2.50
2018-09-11T21:33:21.250Z,2.07
2018-09-11T21:35:52.220Z,2.40
2018-09-11T21:38:23.185Z,3.03
2018-09-11T21:40:54.164Z,7.30
2018-09-11T21:43:25.204Z,3.53
2018-09-11T21:45:56.179Z,3.00
2018-09-11T21:48:27.176Z,2.13
2018-09-11T21:50:58.215Z,2.17
2018-09-11T21:53:29.178Z,1.90
2018-09-11T21:56:00.187Z,2.47
2018-09-11T21:58:31.148Z,2.67
2018-09-11T22:01:07.006Z,1.57
2018-09-11T22:03:38.033Z,4.40
2018-09-11T22:06:09.074Z,3.03
2018-09-11T22:08:40.122Z,1.67
2018-09-11T22:11:11.098Z,2.20
2018-09-11T22:13:42.134Z,1.57
2018-09-11T22:16:13.132Z,1.93
2018-09-11T22:18:44.108Z,2.27
2018-09-11T22:21:15.206Z,1.50
2018-09-11T22:23:46.165Z,1.93
2018-09-11T22:26:17.144Z,1.80
2018-09-11T22:28:48.121Z,1.47
2018-09-11T22:31:19.092Z,1.30
2018-09-11T22:33:50.109Z,1.83
2018-09-11T22:36:21.068Z,1.37
2018-09-11T22:38:52.033Z,2.30
2018-09-11T22:41:23.000Z,1.50
2018-09-11T22:43:53.978Z,3.20
2018-09-11T22:46:25.372Z,0.90
2018-09-11T22:48:56.328Z,2.10
2018-09-11T22:51:27.296Z,6.17
2018-09-11T22:53:58.352Z,1.33
2018-09-11T22:56:29.326Z,1.33
2018-09-11T22:59:00.432Z,1.10
2018-09-11T23:01:31.477Z,1.60
2018-09-11T23:04:02.505Z,2.70
2018-09-11T23:06:33.557Z,1.20
2018-09-11T23:09:04.532Z,1.53
2018-09-11T23:11:35.516Z,1.00
2018-09-11T23:14:06.611Z,1.63
2018-09-11T23:16:37.568Z,3.77
2018-09-11T23:19:08.538Z,1.00
2018-09-11T23:21:39.515Z,1.10
2018-09-11T23:24:10.495Z,1.40
2018-09-11T23:26:41.545Z,2.70
2018-09-11T23:29:12.533Z,2.20
2018-09-11T23:31:43.533Z,1.47
2018-09-11T23:34:14.610Z,1.13
2018-09-11T23:36:45.595Z,1.20
2018-09-11T23:39:16.584Z,2.00
2018-09-11T23:41:47.593Z,1.33
2018-09-11T23:44:18.604Z,1.63
2018-09-11T23:46:49.586Z,1.33
2018-09-11T23:49:20.573Z,1.90
2018-09-11T23:51:51.556Z,1.20
2018-09-11T23:54:22.525Z,1.13
2018-09-11T23:56:53.523Z,1.87
2018-09-11T23:59:24.492Z,1.50
